Time;durP1;ratioP1;P1;durP2;ratioP2;P2;SDS_P1;SDS_P2;PMS_P1;PMS_P2;Temp;Humidity;BMP_temperature;BMP_pressure;BME280_temperature;BME280_humidity;BME280_pressure;Samples;Min_cycle;Max_cycle;Signal;HPM_P1;HPM_P2
2022/07/11 00:01:37;;;;;;;6.50;1.88;;;16.80;99.90;;;;;;5102293;28;20111;-67
2022/07/11 00:04:02;;;;;;;4.45;1.88;;;16.80;99.90;;;;;;5111874;28;20119;-67
2022/07/11 00:06:28;;;;;;;4.90;1.80;;;16.80;99.90;;;;;;5093402;28;20044;-68
2022/07/11 00:08:54;;;;;;;5.43;1.80;;;16.80;99.90;;;;;;5090505;28;20098;-68
2022/07/11 00:11:19;;;;;;;5.80;1.70;;;16.80;99.90;;;;;;5090587;28;20464;-68
2022/07/11 00:13:45;;;;;;;5.68;1.85;;;16.80;99.90;;;;;;5090231;28;20036;-68
2022/07/11 00:16:11;;;;;;;4.45;1.70;;;16.80;99.90;;;;;;5090063;28;20036;-68
2022/07/11 00:18:36;;;;;;;4.75;1.90;;;16.80;99.90;;;;;;5088977;28;20043;-68
2022/07/11 00:21:02;;;;;;;7.55;2.10;;;16.80;99.90;;;;;;5088880;28;20063;-67
2022/07/11 00:23:27;;;;;;;8.60;2.10;;;16.80;99.90;;;;;;5088753;28;20093;-68
2022/07/11 00:25:53;;;;;;;4.13;1.92;;;16.80;99.90;;;;;;5090704;28;20263;-67
2022/07/11 00:28:18;;;;;;;2.60;1.88;;;16.80;99.90;;;;;;5089234;28;20115;-66
2022/07/11 00:30:45;;;;;;;7.35;2.20;;;16.80;99.90;;;;;;5090250;28;20040;-68
2022/07/11 00:33:10;;;;;;;10.15;2.38;;;16.80;99.90;;;;;;5092098;28;20050;-67
2022/07/11 00:35:36;;;;;;;6.03;2.20;;;16.70;99.90;;;;;;5094202;28;20051;-67
2022/07/11 00:38:02;;;;;;;5.47;1.90;;;16.70;99.90;;;;;;5094121;28;20032;-67
2022/07/11 00:40:27;;;;;;;6.03;2.40;;;16.70;99.90;;;;;;5094037;28;20450;-67
2022/07/11 00:42:53;;;;;;;4.85;2.08;;;16.80;99.90;;;;;;5093890;28;20085;-67
2022/07/11 00:45:19;;;;;;;4.07;2.10;;;16.70;99.90;;;;;;5092484;28;20040;-67
2022/07/11 00:47:44;;;;;;;4.50;2.15;;;16.70;99.90;;;;;;5094117;28;20448;-67
2022/07/11 00:50:10;;;;;;;4.80;2.30;;;16.70;99.90;;;;;;5092822;28;20471;-67
2022/07/11 00:52:36;;;;;;;9.02;2.33;;;16.70;99.90;;;;;;5093566;28;20154;-69
2022/07/11 00:55:04;;;;;;;4.07;2.38;;;16.70;99.90;;;;;;5093858;28;20135;-67
2022/07/11 00:57:31;;;;;;;4.97;2.50;;;16.70;99.90;;;;;;5093919;28;20067;-67
2022/07/11 00:59:56;;;;;;;2.55;2.17;;;16.70;99.90;;;;;;5093645;28;20036;-67
2022/07/11 01:02:22;;;;;;;9.82;2.55;;;16.60;99.90;;;;;;5093431;28;20051;-67
2022/07/11 01:04:48;;;;;;;7.70;2.70;;;16.60;99.90;;;;;;5092453;28;20040;-67
2022/07/11 01:07:13;;;;;;;10.90;2.70;;;16.60;99.90;;;;;;5075297;28;20044;-67
2022/07/11 01:09:39;;;;;;;6.22;2.53;;;16.60;99.90;;;;;;5093802;28;20113;-67
2022/07/11 01:12:05;;;;;;;8.95;2.65;;;16.60;99.90;;;;;;5111286;28;20032;-68
2022/07/11 01:14:31;;;;;;;3.53;2.58;;;16.60;99.90;;;;;;5096795;28;20129;-68
2022/07/11 01:16:57;;;;;;;7.70;3.10;;;16.60;99.90;;;;;;5094595;28;20495;-68
2022/07/11 01:19:23;;;;;;;5.72;2.47;;;16.60;99.90;;;;;;5091874;28;20059;-68
2022/07/11 01:21:50;;;;;;;4.40;2.88;;;16.50;99.90;;;;;;5093117;28;20036;-68
2022/07/11 01:24:15;;;;;;;8.75;3.10;;;16.50;99.90;;;;;;5091784;28;20059;-68
2022/07/11 01:26:42;;;;;;;7.65;2.90;;;16.50;99.90;;;;;;5093326;28;20411;-68
2022/07/11 01:29:13;;;;;;;7.72;2.67;;;16.50;99.90;;;;;;5093416;28;20119;-68
2022/07/11 01:31:43;;;;;;;4.63;2.65;;;16.50;99.90;;;;;;5074973;28;20066;-69
2022/07/11 01:34:09;;;;;;;7.45;2.90;;;16.50;99.90;;;;;;5092739;28;20063;-68
2022/07/11 01:36:36;;;;;;;4.82;2.45;;;16.50;99.90;;;;;;5091623;28;20097;-69
2022/07/11 01:39:03;;;;;;;3.72;2.38;;;16.50;99.90;;;;;;5093020;28;20118;-68
2022/07/11 01:41:28;;;;;;;3.55;2.47;;;16.40;99.90;;;;;;5092629;28;20526;-69
2022/07/11 01:43:54;;;;;;;7.38;2.88;;;16.40;99.90;;;;;;5091202;28;20036;-69
2022/07/11 01:46:21;;;;;;;5.63;2.53;;;16.40;99.90;;;;;;5092659;28;20557;-69
2022/07/11 01:48:47;;;;;;;4.25;2.20;;;16.40;99.90;;;;;;5091861;28;20526;-70
2022/07/11 01:51:13;;;;;;;4.00;2.65;;;16.40;99.90;;;;;;5093142;28;20032;-70
2022/07/11 01:53:38;;;;;;;9.32;2.67;;;16.30;99.90;;;;;;5092635;28;20541;-69
2022/07/11 01:56:04;;;;;;;4.07;2.70;;;16.40;99.90;;;;;;5091179;28;20044;-70
2022/07/11 01:58:30;;;;;;;5.78;2.33;;;16.40;99.90;;;;;;5092488;28;20185;-69
2022/07/11 02:00:57;;;;;;;7.78;2.42;;;16.40;99.90;;;;;;5092431;28;20068;-69
2022/07/11 02:03:23;;;;;;;6.88;2.50;;;16.40;99.90;;;;;;5092334;28;20063;-68
2022/07/11 02:05:49;;;;;;;5.47;3.10;;;16.40;99.90;;;;;;5092462;28;20098;-68
2022/07/11 02:08:14;;;;;;;5.38;2.35;;;16.30;99.90;;;;;;5092534;28;20048;-69
2022/07/11 02:10:46;;;;;;;4.55;2.65;;;16.30;99.90;;;;;;5092615;28;20150;-69
2022/07/11 02:13:16;;;;;;;3.87;2.47;;;16.30;99.90;;;;;;5090840;28;20531;-69
2022/07/11 02:15:43;;;;;;;4.90;3.20;;;16.30;99.90;;;;;;5074365;28;20052;-69
2022/07/11 02:18:10;;;;;;;4.28;3.22;;;16.30;99.90;;;;;;5092350;28;20036;-69
2022/07/11 02:20:37;;;;;;;4.72;3.85;;;16.30;99.90;;;;;;5097319;28;20135;-69
2022/07/11 02:23:03;;;;;;;4.63;3.45;;;16.30;99.90;;;;;;5108943;28;20066;-69
2022/07/11 02:25:30;;;;;;;6.82;3.38;;;16.40;99.90;;;;;;5097756;28;20442;-69
2022/07/11 02:27:56;;;;;;;8.80;4.22;;;16.40;99.90;;;;;;5092302;28;20050;-69
2022/07/11 02:30:22;;;;;;;6.85;3.90;;;16.30;99.90;;;;;;5092271;28;20040;-69
2022/07/11 02:32:49;;;;;;;8.05;4.22;;;16.30;99.90;;;;;;5091671;28;20040;-69
2022/07/11 02:35:15;;;;;;;9.63;4.40;;;16.30;99.90;;;;;;5073948;28;20044;-69
2022/07/11 02:37:40;;;;;;;11.60;4.30;;;16.30;99.90;;;;;;5091884;28;20047;-69
2022/07/11 02:40:07;;;;;;;7.25;4.28;;;16.30;99.90;;;;;;5090501;28;20044;-69
2022/07/11 02:42:33;;;;;;;6.90;4.18;;;16.30;99.90;;;;;;5091622;28;20072;-69
2022/07/11 02:44:58;;;;;;;7.00;4.13;;;16.30;99.90;;;;;;5090410;28;20055;-69
2022/07/11 02:47:24;;;;;;;7.40;4.05;;;16.30;99.90;;;;;;5091730;28;20047;-69
2022/07/11 02:49:49;;;;;;;5.72;3.78;;;16.30;99.90;;;;;;5091907;28;20036;-69
2022/07/11 02:52:15;;;;;;;6.85;3.90;;;16.30;99.90;;;;;;5091660;28;20360;-69
2022/07/11 02:54:41;;;;;;;5.93;3.70;;;16.30;99.90;;;;;;5089834;28;20044;-70
2022/07/11 02:57:06;;;;;;;9.02;4.43;;;16.30;99.90;;;;;;5091612;28;20040;-69
2022/07/11 02:59:32;;;;;;;7.95;3.72;;;16.30;99.90;;;;;;5091554;28;20044;-69
2022/07/11 03:01:57;;;;;;;9.25;4.45;;;16.30;99.90;;;;;;5091069;28;20044;-69
2022/07/11 03:04:23;;;;;;;12.50;4.50;;;16.20;99.90;;;;;;5091178;28;20051;-69
2022/07/11 03:06:48;;;;;;;6.05;3.83;;;16.20;99.90;;;;;;5091601;28;20121;-69
2022/07/11 03:09:14;;;;;;;5.80;3.90;;;16.20;99.90;;;;;;5091346;28;20040;-69
2022/07/11 03:11:39;;;;;;;10.60;5.03;;;16.20;99.90;;;;;;5091159;28;20044;-69
2022/07/11 03:14:05;;;;;;;9.02;4.35;;;16.20;99.90;;;;;;5090738;28;20047;-69
2022/07/11 03:16:31;;;;;;;8.23;4.18;;;16.20;99.90;;;;;;5090971;28;20813;-69
2022/07/11 03:18:57;;;;;;;7.95;4.65;;;16.20;99.90;;;;;;5091358;28;20085;-69
2022/07/11 03:21:25;;;;;;;11.50;5.00;;;16.20;99.90;;;;;;5091095;28;20089;-69
2022/07/11 03:23:50;;;;;;;5.13;4.10;;;16.20;99.90;;;;;;5090839;28;20119;-69
2022/07/11 03:26:17;;;;;;;7.70;4.03;;;16.20;99.90;;;;;;5091058;28;20147;-69
2022/07/11 03:28:43;;;;;;;9.18;4.45;;;16.20;99.90;;;;;;5091967;28;20039;-69
2022/07/11 03:31:08;;;;;;;11.65;4.43;;;16.10;99.90;;;;;;5103098;28;20040;-69
2022/07/11 03:33:34;;;;;;;10.57;4.63;;;16.20;99.90;;;;;;5110896;28;20039;-70
2022/07/11 03:36:00;;;;;;;6.50;4.05;;;16.10;99.90;;;;;;5092040;28;20145;-69
2022/07/11 03:38:25;;;;;;;8.05;4.20;;;16.20;99.90;;;;;;5090824;28;20059;-69
2022/07/11 03:40:51;;;;;;;7.07;3.97;;;16.20;99.90;;;;;;5088502;28;20051;-69
2022/07/11 03:43:17;;;;;;;7.25;4.15;;;16.10;99.90;;;;;;5088120;28;20491;-69
2022/07/11 03:45:43;;;;;;;7.07;4.20;;;16.10;99.90;;;;;;5088361;28;20040;-69
2022/07/11 03:48:09;;;;;;;8.27;3.85;;;16.20;99.90;;;;;;5090965;28;20438;-69
2022/07/11 03:50:35;;;;;;;7.07;4.68;;;16.10;99.90;;;;;;5090372;28;20075;-69
2022/07/11 03:53:02;;;;;;;8.85;4.38;;;16.10;99.90;;;;;;5088050;28;20071;-69
2022/07/11 03:55:28;;;;;;;6.57;4.28;;;16.10;99.90;;;;;;5089552;28;20048;-69
2022/07/11 03:57:54;;;;;;;6.97;4.22;;;16.20;99.90;;;;;;5089905;28;20050;-69
2022/07/11 04:00:20;;;;;;;7.65;3.92;;;16.10;99.90;;;;;;5089228;28;20044;-69
2022/07/11 04:02:47;;;;;;;5.60;3.80;;;16.20;99.90;;;;;;5090455;28;20119;-69
2022/07/11 04:05:12;;;;;;;6.03;3.55;;;16.20;99.90;;;;;;5072431;28;20093;-69
2022/07/11 04:07:38;;;;;;;4.22;3.35;;;16.10;99.90;;;;;;5093560;28;20040;-69
2022/07/11 04:10:04;;;;;;;7.38;3.58;;;16.10;99.90;;;;;;5094914;28;20100;-69
2022/07/11 04:12:30;;;;;;;6.38;3.75;;;16.10;99.90;;;;;;5093192;28;20055;-69
2022/07/11 04:14:55;;;;;;;8.90;3.58;;;16.10;99.90;;;;;;5094657;28;20075;-69
2022/07/11 04:17:21;;;;;;;7.57;3.88;;;16.10;99.90;;;;;;5094671;28;20047;-69
2022/07/11 04:19:47;;;;;;;7.00;3.65;;;16.10;99.90;;;;;;5094240;28;20089;-69
2022/07/11 04:22:12;;;;;;;6.97;4.00;;;16.20;99.90;;;;;;5094361;28;20389;-69
2022/07/11 04:24:38;;;;;;;8.13;3.75;;;16.20;99.90;;;;;;5094615;28;20647;-69
2022/07/11 04:27:04;;;;;;;8.20;3.50;;;16.20;99.90;;;;;;5093208;28;20116;-69
2022/07/11 04:29:30;;;;;;;7.40;3.80;;;16.20;99.90;;;;;;5094394;28;20079;-69
2022/07/11 04:31:55;;;;;;;6.40;3.42;;;16.20;99.90;;;;;;5093093;28;20079;-69
2022/07/11 04:34:21;;;;;;;4.25;3.08;;;16.20;99.90;;;;;;5092760;28;20136;-69
2022/07/11 04:36:46;;;;;;;5.50;3.40;;;16.20;99.90;;;;;;5093009;28;20491;-69
2022/07/11 04:39:12;;;;;;;6.03;3.20;;;16.20;99.90;;;;;;5095443;28;20047;-69
2022/07/11 04:41:38;;;;;;;6.28;3.55;;;16.20;99.90;;;;;;5112358;28;20031;-68
2022/07/11 04:44:04;;;;;;;8.52;3.67;;;16.20;99.90;;;;;;5108461;28;20062;-69
2022/07/11 04:46:31;;;;;;;10.77;3.83;;;16.20;99.90;;;;;;5094213;28;20545;-69
2022/07/11 04:48:56;;;;;;;6.53;3.90;;;16.20;99.90;;;;;;5094387;28;20072;-69
2022/07/11 04:51:23;;;;;;;6.15;3.90;;;16.20;99.90;;;;;;5094080;28;20539;-69
2022/07/11 04:53:49;;;;;;;8.65;3.92;;;16.20;99.90;;;;;;5094037;28;20043;-69
2022/07/11 04:56:15;;;;;;;7.60;4.00;;;16.20;99.90;;;;;;5093763;28;20036;-69
2022/07/11 04:58:41;;;;;;;8.25;4.18;;;16.30;99.90;;;;;;5094052;28;20079;-69
2022/07/11 05:01:06;;;;;;;5.45;3.72;;;16.30;99.90;;;;;;5094030;28;20039;-69
2022/07/11 05:03:32;;;;;;;5.40;3.60;;;16.30;99.90;;;;;;5093598;28;20068;-69
2022/07/11 05:05:58;;;;;;;4.75;3.50;;;16.30;99.90;;;;;;5093698;28;20055;-69
2022/07/11 05:08:24;;;;;;;6.68;3.67;;;16.30;99.90;;;;;;5092396;28;20679;-69
2022/07/11 05:10:49;;;;;;;9.25;3.78;;;16.30;99.90;;;;;;5093736;28;20047;-69
2022/07/11 05:13:15;;;;;;;4.28;3.33;;;16.40;99.90;;;;;;5093693;28;20040;-69
2022/07/11 05:15:42;;;;;;;8.30;3.47;;;16.40;99.90;;;;;;5093639;28;20123;-69
2022/07/11 05:18:08;;;;;;;4.85;3.22;;;16.40;99.90;;;;;;5093485;28;20079;-69
2022/07/11 05:20:33;;;;;;;6.80;3.10;;;16.40;99.90;;;;;;5093609;28;20060;-69
2022/07/11 05:22:59;;;;;;;4.53;3.05;;;16.40;99.90;;;;;;5093370;28;20036;-69
2022/07/11 05:25:26;;;;;;;3.58;2.85;;;16.50;99.90;;;;;;5093294;28;20056;-69
2022/07/11 05:27:51;;;;;;;6.68;2.80;;;16.40;99.90;;;;;;5092157;28;20130;-69
2022/07/11 05:30:17;;;;;;;4.72;2.60;;;16.50;99.90;;;;;;5093559;28;20496;-69
2022/07/11 05:32:43;;;;;;;3.28;2.22;;;16.50;99.90;;;;;;5091578;28;20039;-69
2022/07/11 05:35:09;;;;;;;3.42;2.60;;;16.60;99.90;;;;;;5093193;28;20415;-69
2022/07/11 05:37:34;;;;;;;3.45;2.10;;;16.50;99.90;;;;;;5091713;28;20044;-69
2022/07/11 05:40:00;;;;;;;3.05;2.22;;;16.50;99.90;;;;;;5093018;28;20494;-69
2022/07/11 05:42:26;;;;;;;2.30;1.88;;;16.60;99.90;;;;;;5092942;28;20111;-69
2022/07/11 05:44:52;;;;;;;3.83;1.90;;;16.50;99.90;;;;;;5092131;28;20104;-68
2022/07/11 05:47:17;;;;;;;2.45;1.35;;;16.60;99.90;;;;;;5093702;28;20083;-68
2022/07/11 05:49:43;;;;;;;3.55;1.70;;;16.60;99.90;;;;;;5097217;28;20048;-68
2022/07/11 05:52:09;;;;;;;3.30;1.30;;;16.60;99.90;;;;;;5107531;28;20043;-68
2022/07/11 05:54:35;;;;;;;1.75;1.30;;;16.60;99.90;;;;;;5096695;28;20114;-69
2022/07/11 05:57:02;;;;;;;1.85;1.70;;;16.60;99.90;;;;;;5092877;28;20682;-69
2022/07/11 05:59:28;;;;;;;1.85;1.15;;;16.60;99.90;;;;;;5092916;28;20499;-69
2022/07/11 06:01:54;;;;;;;1.20;1.10;;;16.70;99.90;;;;;;5092697;28;20476;-68
2022/07/11 06:04:20;;;;;;;2.30;1.40;;;16.70;99.90;;;;;;5092407;28;20484;-69
2022/07/11 06:06:46;;;;;;;3.20;1.48;;;16.80;99.90;;;;;;5092675;28;20054;-69
2022/07/11 06:09:11;;;;;;;2.35;1.40;;;16.80;99.90;;;;;;5092703;28;20052;-69
2022/07/11 06:11:37;;;;;;;4.10;1.60;;;16.80;99.90;;;;;;5091217;28;20082;-69
2022/07/11 06:14:03;;;;;;;2.47;1.70;;;16.80;99.90;;;;;;5091064;28;20165;-69
2022/07/11 06:16:29;;;;;;;1.38;1.27;;;16.80;99.90;;;;;;5092391;28;20082;-69
2022/07/11 06:18:54;;;;;;;2.17;1.38;;;16.80;99.90;;;;;;5092528;28;20488;-68
2022/07/11 06:21:21;;;;;;;2.08;1.35;;;16.80;99.90;;;;;;5092224;28;20036;-68
2022/07/11 06:23:46;;;;;;;2.88;1.40;;;16.90;99.90;;;;;;5092115;28;20102;-68
2022/07/11 06:26:13;;;;;;;1.58;1.48;;;16.80;99.90;;;;;;5092697;28;20071;-69
2022/07/11 06:28:39;;;;;;;1.23;1.13;;;16.80;99.90;;;;;;5091146;28;20051;-68
2022/07/11 06:31:05;;;;;;;1.98;0.80;;;16.90;99.90;;;;;;5091966;28;20040;-69
2022/07/11 06:33:30;;;;;;;6.22;1.25;;;16.90;99.90;;;;;;5091964;28;20064;-69
2022/07/11 06:35:56;;;;;;;1.17;1.08;;;17.00;99.90;;;;;;5092119;28;20087;-69
2022/07/11 06:38:22;;;;;;;1.75;0.93;;;17.10;99.90;;;;;;5092142;28;20078;-69
2022/07/11 06:40:48;;;;;;;4.18;1.00;;;17.10;99.90;;;;;;5090822;28;20039;-69
2022/07/11 06:43:14;;;;;;;3.28;1.00;;;17.10;99.90;;;;;;5090386;28;20607;-69
2022/07/11 06:45:39;;;;;;;2.33;1.00;;;17.20;99.90;;;;;;5090758;28;20040;-69
2022/07/11 06:48:06;;;;;;;1.83;1.10;;;17.10;99.90;;;;;;5092015;28;20044;-69
2022/07/11 06:50:32;;;;;;;2.40;1.00;;;17.20;99.90;;;;;;5092308;28;20056;-69
2022/07/11 06:52:57;;;;;;;1.10;0.93;;;17.20;99.90;;;;;;5100222;28;20149;-69
2022/07/11 06:55:23;;;;;;;3.22;1.20;;;17.10;99.90;;;;;;5080841;28;20403;-69
2022/07/11 06:57:51;;;;;;;1.38;1.00;;;17.20;99.90;;;;;;5101324;28;20074;-70
2022/07/11 07:00:17;;;;;;;2.75;1.08;;;17.20;99.90;;;;;;5097130;28;20362;-70
2022/07/11 07:02:44;;;;;;;2.95;1.17;;;17.20;99.90;;;;;;5084898;28;20047;-69
2022/07/11 07:05:10;;;;;;;3.00;1.17;;;17.20;99.90;;;;;;5071697;28;20081;-69
2022/07/11 07:07:36;;;;;;;2.35;1.42;;;17.20;99.90;;;;;;5080609;28;20052;-69
2022/07/11 07:10:01;;;;;;;3.70;1.50;;;17.10;99.90;;;;;;5083534;28;20043;-69
2022/07/11 07:12:27;;;;;;;2.42;1.30;;;17.10;99.90;;;;;;5086428;28;20036;-69
2022/07/11 07:14:53;;;;;;;2.00;0.88;;;17.10;99.90;;;;;;5081040;28;20043;-68
2022/07/11 07:17:18;;;;;;;3.28;1.17;;;17.20;99.90;;;;;;5079831;28;20485;-68
2022/07/11 07:19:44;;;;;;;3.28;1.08;;;17.20;99.90;;;;;;5071941;28;20039;-71
2022/07/11 07:22:10;;;;;;;1.10;1.00;;;17.20;99.90;;;;;;5069775;28;20094;-68
2022/07/11 07:24:38;;;;;;;2.30;1.40;;;17.20;99.90;;;;;;5070926;28;20047;-69
2022/07/11 07:27:04;;;;;;;3.58;1.27;;;17.20;99.90;;;;;;5070817;28;20050;-69
2022/07/11 07:29:30;;;;;;;1.20;1.10;;;17.20;99.90;;;;;;5071125;28;20037;-69
2022/07/11 07:31:56;;;;;;;2.35;1.20;;;17.10;99.90;;;;;;5070975;28;20115;-69
2022/07/11 07:34:22;;;;;;;1.80;1.10;;;17.20;99.90;;;;;;5069333;28;20707;-69
2022/07/11 07:36:48;;;;;;;2.55;1.20;;;17.20;99.90;;;;;;5070700;28;20059;-68
2022/07/11 07:39:13;;;;;;;1.52;1.10;;;17.20;99.90;;;;;;5072586;28;20067;-70
2022/07/11 07:41:39;;;;;;;4.43;1.20;;;17.20;99.90;;;;;;5103274;28;20046;-69
2022/07/11 07:44:04;;;;;;;1.25;0.90;;;17.40;99.90;;;;;;5110055;28;20038;-70
2022/07/11 07:46:30;;;;;;;1.20;1.00;;;17.40;99.90;;;;;;5111175;28;20038;-70
2022/07/11 07:48:56;;;;;;;1.92;0.88;;;17.40;99.90;;;;;;5109840;28;20055;-70
2022/07/11 07:51:22;;;;;;;2.85;0.98;;;17.30;99.90;;;;;;5109667;28;20048;-71
2022/07/11 07:53:48;;;;;;;1.73;0.80;;;17.30;99.90;;;;;;5088517;28;20401;-71
2022/07/11 07:56:14;;;;;;;1.70;0.70;;;17.50;99.90;;;;;;5089378;28;20107;-70
2022/07/11 07:58:39;;;;;;;3.65;1.10;;;17.50;99.90;;;;;;5091265;28;20116;-70
2022/07/11 08:03:50;;;;;;;0.73;0.60;;;17.60;99.90;;;;;;5089037;28;20036;-71
2022/07/11 08:06:16;;;;;;;0.90;0.60;;;17.70;99.90;;;;;;5089086;28;20043;-70
2022/07/11 08:08:41;;;;;;;1.42;0.90;;;17.70;99.90;;;;;;5090167;28;20488;-69
2022/07/11 08:11:07;;;;;;;1.38;0.70;;;17.60;99.90;;;;;;5097834;28;20071;-70
2022/07/11 08:13:33;;;;;;;2.60;0.60;;;17.70;99.90;;;;;;5091426;28;20046;-71
2022/07/11 08:15:58;;;;;;;1.45;0.60;;;17.70;99.90;;;;;;5096252;28;20041;-70
2022/07/11 08:18:24;;;;;;;0.50;0.50;;;17.80;99.90;;;;;;5090865;28;20063;-70
2022/07/11 08:20:53;;;;;;;2.30;0.60;;;17.90;99.90;;;;;;5090496;28;20032;-70
2022/07/11 08:23:18;;;;;;;3.70;0.70;;;18.10;99.90;;;;;;5088906;28;20040;-69
2022/07/11 08:25:44;;;;;;;2.08;0.70;;;18.10;99.90;;;;;;5089082;28;20126;-70
2022/07/11 08:28:10;;;;;;;1.77;0.60;;;18.10;99.90;;;;;;5090339;28;20479;-69
2022/07/11 08:30:35;;;;;;;1.00;0.60;;;18.10;99.90;;;;;;5089216;28;20115;-69
2022/07/11 08:33:01;;;;;;;1.60;0.60;;;18.10;99.90;;;;;;5071921;28;20044;-69
2022/07/11 08:35:26;;;;;;;2.33;0.73;;;18.20;99.90;;;;;;5088583;28;20083;-70
2022/07/11 08:37:52;;;;;;;2.13;0.70;;;18.20;99.90;;;;;;5090271;28;20115;-69
2022/07/11 08:40:17;;;;;;;1.25;0.60;;;18.30;99.90;;;;;;5083009;28;20048;-69
2022/07/11 08:42:44;;;;;;;0.60;0.60;;;18.30;99.90;;;;;;5079103;28;20484;-74
2022/07/11 08:45:17;;;;;;;0.57;0.57;;;18.40;99.90;;;;;;5078504;28;20048;-74
2022/07/11 08:47:44;;;;;;;3.05;0.70;;;18.50;99.90;;;;;;5079194;28;20398;-75
2022/07/11 08:50:12;;;;;;;0.50;0.50;;;18.50;99.90;;;;;;5078264;28;20032;-73
2022/07/11 08:52:38;;;;;;;2.13;0.70;;;18.70;99.90;;;;;;5076869;28;20190;-74
2022/07/11 08:55:08;;;;;;;0.45;0.43;;;18.70;99.90;;;;;;5072371;28;20044;-74
2022/07/11 08:57:36;;;;;;;0.47;0.47;;;18.70;99.90;;;;;;5072766;28;20369;-74
2022/07/11 09:00:05;;;;;;;0.52;0.52;;;18.80;99.90;;;;;;5073590;28;20048;-74
2022/07/11 09:02:32;;;;;;;2.63;0.60;;;19.00;99.90;;;;;;5073336;28;20044;-74
2022/07/11 09:04:59;;;;;;;1.45;0.60;;;19.10;99.90;;;;;;5072200;28;20051;-74
2022/07/11 09:07:26;;;;;;;3.25;0.57;;;19.10;99.90;;;;;;5072233;28;20044;-75
2022/07/11 09:09:52;;;;;;;0.75;0.50;;;19.10;99.90;;;;;;5072267;28;20056;-74
2022/07/11 09:12:18;;;;;;;0.70;0.60;;;19.00;99.90;;;;;;5071901;28;20049;-74
2022/07/11 09:14:48;;;;;;;0.85;0.50;;;19.00;99.90;;;;;;5056043;28;20432;-74
2022/07/11 09:17:13;;;;;;;0.98;0.50;;;19.00;99.90;;;;;;5080046;28;20035;-74
2022/07/11 09:19:39;;;;;;;1.42;0.60;;;18.90;99.90;;;;;;5092224;28;20028;-74
2022/07/11 09:25:31;;;;;;;1.10;0.45;;;18.90;99.90;;;;;;5073173;28;20053;-74
2022/07/11 09:28:01;;;;;;;2.35;0.50;;;18.90;99.90;;;;;;5069426;28;20049;-74
2022/07/11 09:30:28;;;;;;;1.65;0.40;;;18.90;99.90;;;;;;5072133;28;20144;-74
2022/07/11 09:33:05;;;;;;;0.88;0.50;;;19.00;99.90;;;;;;5071662;28;20053;-74
2022/07/11 09:35:31;;;;;;;0.40;0.38;;;19.00;99.90;;;;;;5071880;28;20135;-74
2022/07/11 09:37:57;;;;;;;1.95;0.57;;;19.10;99.90;;;;;;5071657;28;20090;-73
2022/07/11 09:40:23;;;;;;;0.70;0.57;;;19.20;99.90;;;;;;5055317;28;20044;-73
2022/07/11 09:42:51;;;;;;;1.52;0.50;;;19.10;99.90;;;;;;5072884;28;20044;-73
2022/07/11 09:45:18;;;;;;;0.77;0.50;;;19.20;99.90;;;;;;5075612;28;20179;-75
2022/07/11 09:47:48;;;;;;;0.50;0.50;;;19.20;99.90;;;;;;5073813;28;20127;-74
2022/07/11 09:50:21;;;;;;;0.30;0.30;;;19.20;99.90;;;;;;5055142;28;20377;-74
2022/07/11 09:53:07;;;;;;;1.50;0.43;;;19.30;99.90;;;;;;5071275;28;20165;-74
2022/07/11 09:55:38;;;;;;;0.77;0.65;;;19.20;99.90;;;;;;5071425;28;20049;-74
2022/07/11 09:58:11;;;;;;;1.38;0.60;;;19.30;99.90;;;;;;5071729;28;20040;-74
2022/07/11 10:00:38;;;;;;;0.40;0.40;;;19.30;99.90;;;;;;5071387;28;20508;-74
2022/07/11 10:03:06;;;;;;;1.20;0.52;;;19.30;99.90;;;;;;5054459;28;20039;-74
2022/07/11 10:05:32;;;;;;;0.35;0.32;;;19.30;99.90;;;;;;5070318;28;20047;-74
2022/07/11 10:07:58;;;;;;;0.40;0.40;;;19.30;99.90;;;;;;5072495;28;20032;-74
2022/07/11 10:10:25;;;;;;;0.35;0.32;;;19.40;99.90;;;;;;5072674;28;20036;-74
2022/07/11 10:12:52;;;;;;;0.30;0.30;;;19.50;99.90;;;;;;5054120;28;20041;-75
2022/07/11 10:15:27;;;;;;;0.50;0.45;;;19.60;99.90;;;;;;5071167;28;20489;-74
2022/07/11 10:18:18;;;;;;;0.40;0.40;;;19.70;99.90;;;;;;5070940;28;20036;-75
2022/07/11 10:21:22;;;;;;;1.05;0.50;;;19.50;99.90;;;;;;5071256;28;20040;-74
2022/07/11 10:24:12;;;;;;;0.50;0.40;;;19.50;99.90;;;;;;5072357;28;20500;-74
2022/07/11 10:26:56;;;;;;;0.90;0.50;;;19.50;99.90;;;;;;5092472;28;20063;-76
2022/07/11 10:29:34;;;;;;;1.60;0.65;;;19.40;99.90;;;;;;5090093;28;20467;-74
2022/07/11 10:32:08;;;;;;;1.98;0.68;;;19.40;99.90;;;;;;5071800;28;20413;-74
2022/07/11 10:34:34;;;;;;;1.73;0.50;;;19.50;99.90;;;;;;5070632;28;20447;-74
2022/07/11 10:37:02;;;;;;;0.65;0.50;;;19.50;99.90;;;;;;5071812;28;20036;-74
2022/07/11 10:39:28;;;;;;;0.30;0.30;;;19.60;99.90;;;;;;5079218;28;20047;-75
2022/07/11 10:41:58;;;;;;;0.45;0.45;;;19.60;99.90;;;;;;5110661;28;20040;-76
2022/07/11 10:44:25;;;;;;;1.02;0.40;;;19.60;99.90;;;;;;5110799;28;20148;-74
2022/07/11 10:46:54;;;;;;;0.40;0.40;;;19.50;99.90;;;;;;5111107;28;20373;-74
2022/07/11 10:49:43;;;;;;;0.47;0.40;;;19.50;99.90;;;;;;5110724;28;20036;-74
2022/07/11 10:52:09;;;;;;;0.90;0.50;;;19.50;99.90;;;;;;5085082;28;20044;-74
2022/07/11 10:54:55;;;;;;;1.38;0.60;;;19.80;99.90;;;;;;5090591;28;20051;-74
2022/07/11 10:57:20;;;;;;;0.50;0.50;;;19.80;99.90;;;;;;5079796;28;20140;-74
2022/07/11 11:00:00;;;;;;;0.68;0.40;;;19.70;99.90;;;;;;5082168;28;20044;-74
2022/07/11 11:02:30;;;;;;;0.43;0.43;;;19.60;99.90;;;;;;5083884;28;20127;-74
2022/07/11 11:05:00;;;;;;;3.10;0.50;;;19.60;99.90;;;;;;5071708;28;20088;-74
2022/07/11 11:07:32;;;;;;;0.90;0.40;;;19.50;99.90;;;;;;5053568;28;20037;-74
2022/07/11 11:09:58;;;;;;;;;;;19.60;99.90;;;;;;5078569;28;20032;-74
2022/07/11 11:13:05;;;;;;;0.80;0.50;;;19.60;99.90;;;;;;5062526;28;20385;-74
2022/07/11 11:15:46;;;;;;;0.60;0.40;;;19.60;99.90;;;;;;5077448;28;20044;-74
2022/07/11 11:18:24;;;;;;;0.50;0.40;;;19.60;99.90;;;;;;5070081;28;20039;-74
2022/07/11 11:21:07;;;;;;;1.35;0.30;;;19.50;99.90;;;;;;5070826;28;20082;-73
2022/07/11 11:23:39;;;;;;;0.30;0.30;;;19.50;99.90;;;;;;5069384;28;20041;-74
2022/07/11 11:26:09;;;;;;;;;;;19.40;99.90;;;;;;5070297;28;20055;-73
2022/07/11 11:28:36;;;;;;;2.88;0.50;;;19.40;99.90;;;;;;5070866;28;19916;-74
2022/07/11 11:31:04;;;;;;;0.50;0.50;;;19.50;99.90;;;;;;5071014;28;20051;-74
2022/07/11 11:33:33;;;;;;;2.05;0.50;;;19.60;99.90;;;;;;5075477;28;20044;-74
2022/07/11 11:36:07;;;;;;;5.10;0.50;;;19.70;99.90;;;;;;5096950;28;20059;-76
2022/07/11 11:38:36;;;;;;;0.40;0.40;;;19.80;99.90;;;;;;5081012;28;20185;-74
2022/07/11 11:41:02;;;;;;;0.60;0.50;;;19.80;99.90;;;;;;5069571;28;20044;-74
2022/07/11 11:43:28;;;;;;;0.43;0.40;;;19.80;99.90;;;;;;5053126;28;20070;-74
2022/07/11 11:45:55;;;;;;;1.55;0.75;;;19.80;99.90;;;;;;5070949;28;20036;-74
2022/07/11 11:48:33;;;;;;;2.50;0.55;;;19.70;99.90;;;;;;5069335;28;20040;-74
2022/07/11 11:51:11;;;;;;;1.42;0.55;;;19.70;99.90;;;;;;5069354;28;20511;-73
2022/07/11 11:53:45;;;;;;;2.38;0.60;;;19.80;99.90;;;;;;5069018;28;20066;-74
2022/07/11 11:56:34;;;;;;;3.22;0.63;;;19.80;99.90;;;;;;5070915;28;20120;-69
2022/07/11 11:59:07;;;;;;;0.70;0.47;;;19.70;99.90;;;;;;5075828;28;20495;-69
2022/07/11 12:01:35;;;;;;;2.47;0.47;;;19.90;99.90;;;;;;5082126;28;20044;-69
2022/07/11 12:04:05;;;;;;;0.60;0.40;;;19.80;99.90;;;;;;5083912;28;20036;-69
2022/07/11 12:06:34;;;;;;;1.85;0.50;;;19.80;99.90;;;;;;5084729;28;20486;-69
2022/07/11 12:09:05;;;;;;;1.65;0.60;;;19.90;99.90;;;;;;5082860;28;20512;-69
2022/07/11 12:11:31;;;;;;;1.35;0.45;;;19.90;99.90;;;;;;5085233;28;20040;-67
2022/07/11 12:14:03;;;;;;;0.93;0.50;;;20.20;99.90;;;;;;5084486;28;20068;-67
2022/07/11 12:16:41;;;;;;;0.40;0.40;;;20.20;99.90;;;;;;5079709;28;20416;-68
2022/07/11 12:19:08;;;;;;;1.17;0.40;;;20.10;99.90;;;;;;5070100;28;20036;-69
2022/07/11 12:21:35;;;;;;;0.50;0.50;;;20.20;99.90;;;;;;5070549;28;20388;-70
2022/07/11 12:24:03;;;;;;;0.85;0.60;;;20.30;99.90;;;;;;5072590;28;20400;-69
2022/07/11 12:26:32;;;;;;;0.40;0.40;;;20.30;99.90;;;;;;5074577;28;20041;-70
2022/07/11 12:29:22;;;;;;;0.85;0.60;;;20.30;99.90;;;;;;5077055;28;20084;-70
2022/07/11 12:31:53;;;;;;;0.80;0.50;;;20.30;99.90;;;;;;5075164;28;20110;-70
2022/07/11 12:34:30;;;;;;;0.50;0.43;;;20.30;99.90;;;;;;5076591;28;20082;-70
2022/07/11 12:37:07;;;;;;;0.73;0.47;;;20.20;99.90;;;;;;5076607;28;20036;-70
2022/07/11 12:39:38;;;;;;;2.10;0.43;;;20.30;99.90;;;;;;5076368;28;20485;-69
2022/07/11 12:42:21;;;;;;;0.52;0.50;;;20.20;99.90;;;;;;5076828;28;20040;-70
2022/07/11 12:44:59;;;;;;;0.95;0.55;;;20.40;99.90;;;;;;5091802;28;20044;-70
2022/07/11 12:47:29;;;;;;;2.45;0.63;;;20.30;99.90;;;;;;5081508;28;20071;-70
2022/07/11 12:49:56;;;;;;;0.68;0.35;;;20.40;99.90;;;;;;5076809;28;20043;-70
2022/07/11 12:52:22;;;;;;;1.38;0.50;;;20.40;99.90;;;;;;5075073;28;20047;-69
2022/07/11 12:54:49;;;;;;;0.52;0.50;;;20.40;99.90;;;;;;5076268;28;20047;-69
2022/07/11 12:57:20;;;;;;;3.30;0.40;;;20.50;99.90;;;;;;5075591;28;20524;-73